createdAt,value
2018-04-12T00:01:44.181Z,41.00
2018-04-12T00:06:47.220Z,41.00
2018-04-12T00:11:49.797Z,41.00
2018-04-12T00:16:52.336Z,41.00
2018-04-12T00:21:54.874Z,41.00
2018-04-12T00:26:57.411Z,41.00
2018-04-12T00:32:00.702Z,41.00
2018-04-12T00:37:04.022Z,41.00
2018-04-12T00:42:07.097Z,40.90
2018-04-12T00:47:09.728Z,41.00
2018-04-12T00:52:12.585Z,41.00
2018-04-12T00:57:15.114Z,40.90
2018-04-12T01:02:18.487Z,40.90
2018-04-12T01:07:21.403Z,40.90
2018-04-12T01:12:23.933Z,40.60
2018-04-12T01:17:27.180Z,41.00
2018-04-12T01:22:29.686Z,41.00
2018-04-12T01:27:33.111Z,41.00
2018-04-12T01:32:35.671Z,40.90
2018-04-12T01:37:38.990Z,41.00
2018-04-12T01:42:41.617Z,41.00
2018-04-12T01:47:44.181Z,41.00
2018-04-12T01:52:46.759Z,41.00
2018-04-12T01:57:50.108Z,41.60
2018-04-12T02:02:52.646Z,41.00
2018-04-12T02:07:55.244Z,41.00
2018-04-12T02:12:57.917Z,41.00
2018-04-12T02:18:00.660Z,41.00
2018-04-12T02:23:03.187Z,41.00
2018-04-12T02:28:06.487Z,41.00
2018-04-12T02:33:08.997Z,41.00
2018-04-12T02:38:11.524Z,41.00
2018-04-12T02:43:14.041Z,40.90
2018-04-12T02:48:17.334Z,41.00
2018-04-12T02:53:19.868Z,40.90
2018-04-12T02:58:22.393Z,40.90
2018-04-12T03:03:24.956Z,41.00
2018-04-12T03:08:28.267Z,40.90
2018-04-12T03:13:30.948Z,40.90
2018-04-12T03:18:34.242Z,40.90
2018-04-12T03:23:37.548Z,40.90
2018-04-12T03:28:40.107Z,40.90
2018-04-12T03:33:42.633Z,40.90
2018-04-12T03:38:45.231Z,40.90
2018-04-12T03:43:47.768Z,40.90
2018-04-12T03:48:50.410Z,40.90
2018-04-12T03:53:53.522Z,40.90
2018-04-12T03:58:56.040Z,40.90
2018-04-12T04:03:58.620Z,40.90
2018-04-12T04:09:01.149Z,41.00
2018-04-12T04:14:03.660Z,41.00
2018-04-12T04:19:18.060Z,40.90
2018-04-12T04:24:20.684Z,41.00
2018-04-12T04:29:23.225Z,41.00
2018-04-12T04:34:26.014Z,41.00
2018-04-12T04:39:28.899Z,41.00
2018-04-12T04:44:31.412Z,40.90
2018-04-12T04:49:34.959Z,40.90
2018-04-12T04:54:37.490Z,40.80
2018-04-12T04:59:40.326Z,40.90
2018-04-12T05:04:42.951Z,40.80
2018-04-12T05:09:45.620Z,40.80
2018-04-12T05:14:48.143Z,40.70
2018-04-12T05:19:50.710Z,40.70
2018-04-12T05:24:53.329Z,40.70
2018-04-12T05:29:55.869Z,40.50
2018-04-12T05:34:58.635Z,40.50
2018-04-12T05:40:01.531Z,40.30
2018-04-12T05:45:04.063Z,40.30
2018-04-12T05:50:06.760Z,40.80
2018-04-12T05:55:09.474Z,40.20
2018-04-12T06:00:12.057Z,40.20
2018-04-12T06:05:15.618Z,40.20
2018-04-12T06:10:18.992Z,40.30
2018-04-12T06:15:21.634Z,40.20
2018-04-12T06:20:25.026Z,40.20
2018-04-12T06:25:27.567Z,40.20
2018-04-12T06:30:30.140Z,40.20
2018-04-12T06:35:32.682Z,40.20
2018-04-12T06:40:35.224Z,40.20
2018-04-12T06:45:37.871Z,40.30
2018-04-12T06:50:41.199Z,40.30
2018-04-12T06:55:43.797Z,40.20
2018-04-12T07:00:46.317Z,40.30
2018-04-12T07:05:48.863Z,40.30
2018-04-12T07:10:51.600Z,40.30
2018-04-12T07:15:54.936Z,40.20
2018-04-12T07:20:57.470Z,40.10
2018-04-12T07:26:00.224Z,40.20
2018-04-12T07:31:03.192Z,40.20
2018-04-12T07:36:05.780Z,40.30
2018-04-12T07:41:09.018Z,40.30
2018-04-12T07:46:11.563Z,40.20
2018-04-12T07:51:14.189Z,40.10
2018-04-12T07:56:16.824Z,40.00
2018-04-12T08:01:19.357Z,40.00
2018-04-12T08:06:22.061Z,40.00
2018-04-12T08:11:24.751Z,39.90
2018-04-12T08:16:27.270Z,40.00
2018-04-12T08:21:29.805Z,40.20
2018-04-12T08:26:33.109Z,40.20
2018-04-12T08:31:36.077Z,40.20
2018-04-12T08:36:39.580Z,40.30
2018-04-12T08:41:42.324Z,40.30
2018-04-12T08:46:45.741Z,40.20
2018-04-12T08:51:48.394Z,40.20
2018-04-12T08:56:50.948Z,40.20
2018-04-12T09:01:53.467Z,40.20
2018-04-12T09:06:57.613Z,40.30
2018-04-12T09:12:00.938Z,40.30
2018-04-12T09:17:03.491Z,40.20
2018-04-12T09:22:06.135Z,40.30
2018-04-12T09:27:08.713Z,40.20
2018-04-12T09:32:11.249Z,40.20
2018-04-12T09:37:13.747Z,40.20
2018-04-12T09:42:16.310Z,40.20
2018-04-12T09:47:19.584Z,40.40
2018-04-12T09:52:22.098Z,40.30
2018-04-12T09:57:24.706Z,40.30
2018-04-12T10:02:28.999Z,40.40
2018-04-12T10:07:37.175Z,40.30
2018-04-12T10:12:39.814Z,40.30
2018-04-12T10:17:42.339Z,40.30
2018-04-12T10:22:44.864Z,40.30
2018-04-12T10:27:47.429Z,40.40
2018-04-12T10:32:50.030Z,40.20
2018-04-12T10:37:52.729Z,40.30
2018-04-12T10:42:56.029Z,40.30
2018-04-12T10:47:58.643Z,40.30
2018-04-12T10:53:01.918Z,40.30
2018-04-12T10:58:04.457Z,40.20
2018-04-12T11:03:06.997Z,40.20
2018-04-12T11:08:09.552Z,40.20
2018-04-12T11:13:12.229Z,40.20
2018-04-12T11:18:15.037Z,40.30
2018-04-12T11:23:17.580Z,40.30
2018-04-12T11:28:20.290Z,40.30
2018-04-12T11:33:22.955Z,40.20
2018-04-12T11:38:25.471Z,40.30
2018-04-12T11:43:28.022Z,40.20
2018-04-12T11:48:30.559Z,40.20
2018-04-12T11:53:33.139Z,40.20
2018-04-12T11:58:35.694Z,40.10
2018-04-12T12:03:38.997Z,40.20
2018-04-12T12:08:41.549Z,40.10
2018-04-12T12:13:44.445Z,40.20
2018-04-12T12:18:47.788Z,40.30
2018-04-12T12:23:50.444Z,40.30
2018-04-12T12:28:53.111Z,40.20
2018-04-12T12:33:56.436Z,40.30
2018-04-12T12:38:58.997Z,40.30
2018-04-12T12:44:07.302Z,40.30
2018-04-12T12:49:09.871Z,40.20
2018-04-12T12:54:12.409Z,40.10
2018-04-12T12:59:14.960Z,40.20
2018-04-12T13:04:26.344Z,40.20
2018-04-12T13:09:34.765Z,40.30
2018-04-12T13:14:37.445Z,40.30
2018-04-12T13:19:40.023Z,40.30
2018-04-12T13:24:48.349Z,40.20
2018-04-12T13:29:56.820Z,40.20
2018-04-12T13:35:00.561Z,40.20
2018-04-12T13:40:03.164Z,40.10
2018-04-12T13:45:05.670Z,40.20
2018-04-12T13:50:14.167Z,40.20
2018-04-12T13:55:17.476Z,40.10
2018-04-12T14:00:31.200Z,40.10
2018-04-12T14:05:33.758Z,40.10
2018-04-12T14:10:36.523Z,40.10
2018-04-12T14:15:45.622Z,40.20
2018-04-12T14:20:48.161Z,40.10
2018-04-12T14:26:02.613Z,40.00
2018-04-12T14:31:05.134Z,40.10
2018-04-12T14:36:08.420Z,40.10
2018-04-12T14:41:12.007Z,40.00
2018-04-12T14:46:14.620Z,40.00
2018-04-12T14:51:17.227Z,40.10
2018-04-12T14:56:19.774Z,40.10
2018-04-12T15:01:22.319Z,40.10
2018-04-12T15:06:36.730Z,40.00
2018-04-12T15:11:39.607Z,40.00
2018-04-12T15:16:42.203Z,39.90
2018-04-12T15:21:45.509Z,40.00
2018-04-12T15:26:48.819Z,40.40
2018-04-12T15:31:51.548Z,40.00
2018-04-12T15:36:54.151Z,40.00
2018-04-12T15:41:57.056Z,40.00
2018-04-12T15:46:59.859Z,40.10
2018-04-12T15:52:09.367Z,40.10
2018-04-12T15:57:17.649Z,40.10
2018-04-12T16:02:20.176Z,40.10
2018-04-12T16:07:22.679Z,40.10
2018-04-12T16:12:31.011Z,40.10
2018-04-12T16:17:33.606Z,40.10
2018-04-12T16:22:42.132Z,40.10
2018-04-12T16:27:44.879Z,40.10
2018-04-12T16:32:53.273Z,40.00
2018-04-12T16:37:55.911Z,40.00
2018-04-12T16:42:58.744Z,40.10
2018-04-12T16:48:13.054Z,40.10
2018-04-12T16:53:15.721Z,40.20
2018-04-12T16:58:18.360Z,40.10
2018-04-12T17:03:20.911Z,39.90
2018-04-12T17:08:29.355Z,40.10
2018-04-12T17:13:31.855Z,40.00
2018-04-12T17:18:40.180Z,40.00
2018-04-12T17:23:43.178Z,40.00
2018-04-12T17:28:57.398Z,40.00
2018-04-12T17:34:06.062Z,40.10
2018-04-12T17:39:14.442Z,40.00
2018-04-12T17:44:17.804Z,40.20
2018-04-12T17:49:26.131Z,40.10
2018-04-12T17:54:28.692Z,40.20
2018-04-12T17:59:37.824Z,40.20
2018-04-12T18:04:40.544Z,40.70
2018-04-12T18:09:43.098Z,40.10
2018-04-12T18:14:45.664Z,40.20
2018-04-12T18:19:48.350Z,40.20
2018-04-12T18:24:56.570Z,40.20
2018-04-12T18:29:59.143Z,40.30
2018-04-12T18:35:01.783Z,40.30
2018-04-12T18:40:10.074Z,40.30
2018-04-12T18:45:15.128Z,40.40
2018-04-12T18:50:18.541Z,40.40
2018-04-12T18:55:21.237Z,40.30
2018-04-12T19:00:24.142Z,40.50
2018-04-12T19:05:33.511Z,40.40
2018-04-12T19:10:41.933Z,40.30
2018-04-12T19:15:45.245Z,40.50
2018-04-12T19:20:53.668Z,40.30
2018-04-12T19:26:01.942Z,40.50
2018-04-12T19:31:04.539Z,40.50
2018-04-12T19:36:12.871Z,40.50
2018-04-12T19:41:15.598Z,40.50
2018-04-12T19:46:18.978Z,40.50
2018-04-12T19:51:21.504Z,40.40
2018-04-12T19:56:24.284Z,40.50
2018-04-12T20:01:26.923Z,40.50
2018-04-12T20:06:29.455Z,40.50
2018-04-12T20:11:31.965Z,40.50
2018-04-12T20:16:34.806Z,40.50
2018-04-12T20:21:38.051Z,40.50
2018-04-12T20:26:40.835Z,40.60
2018-04-12T20:31:43.516Z,40.60
2018-04-12T20:36:47.875Z,40.70
2018-04-12T20:41:50.398Z,40.60
2018-04-12T20:46:58.871Z,40.70
2018-04-12T20:52:01.516Z,40.70
2018-04-12T20:57:04.141Z,40.70
2018-04-12T21:02:06.855Z,40.50
2018-04-12T21:07:16.162Z,40.70
2018-04-12T21:12:24.701Z,40.70
2018-04-12T21:17:27.721Z,40.70
2018-04-12T21:22:30.555Z,40.70
2018-04-12T21:27:33.092Z,40.70
2018-04-12T21:32:35.804Z,40.70
2018-04-12T21:37:44.997Z,40.80
2018-04-12T21:42:47.638Z,41.10
2018-04-12T21:47:55.887Z,40.70
2018-04-12T21:52:58.547Z,40.70
2018-04-12T21:58:01.814Z,40.80
2018-04-12T22:03:10.105Z,40.70
2018-04-12T22:08:18.525Z,40.80
2018-04-12T22:13:26.797Z,40.80
2018-04-12T22:18:29.318Z,40.90
2018-04-12T22:23:38.666Z,40.80
2018-04-12T22:28:41.272Z,40.70
2018-04-12T22:33:49.591Z,40.80
2018-04-12T22:38:52.126Z,40.90
2018-04-12T22:43:55.413Z,40.90
2018-04-12T22:48:58.747Z,40.90
2018-04-12T22:54:08.256Z,40.80
2018-04-12T22:59:10.996Z,40.90
2018-04-12T23:04:19.609Z,40.90
2018-04-12T23:09:22.137Z,40.90
2018-04-12T23:14:24.685Z,41.00
2018-04-12T23:19:27.261Z,40.90
2018-04-12T23:24:29.797Z,41.00
2018-04-12T23:29:32.350Z,40.90
2018-04-12T23:34:35.701Z,41.00
2018-04-12T23:39:39.016Z,41.00
2018-04-12T23:44:42.063Z,40.90
2018-04-12T23:49:50.488Z,40.90
2018-04-12T23:54:58.724Z,40.90
